Athens, Ohio
Current Conditions -  °F | °C
As of 12:35 AM on Saturday 01 Nov 2014 (Local Time) from KUNI Reporting Station
Moderate Rain Moderate Rain  
Wind Chill: 41°   Ceiling: 1400
Heat Index: 41°   Visibility: 10mi
Dew Point: 39°   Wind: 3mph
Humidity: 93%   Direction: 340°NNW
Pressure: 29.89"   Gusts: NA
Location:  39.33°N, 82.1°W
Report Text: KUNI 010435Z AUTO 34003KT 10SM RA SCT006 BKN014 OVC020 05/04 A2989 RMK AO2 T00500040
Loading
Personal Weather Stations






























Interactive Weather Map
Tropical Storm Tracking
New forecast layout! Learn more

10-Day Weather Forecast

Advertisements
Track Severe Weather on mobile